createdAt,value
2018-08-22T00:01:42.407Z,4.80
2018-08-22T00:04:12.499Z,7.42
2018-08-22T00:06:41.394Z,6.92
2018-08-22T00:09:10.289Z,4.87
2018-08-22T00:11:39.303Z,5.42
2018-08-22T00:14:08.222Z,5.47
2018-08-22T00:16:37.309Z,5.53
2018-08-22T00:19:06.247Z,6.05
2018-08-22T00:21:35.370Z,5.80
2018-08-22T00:24:04.282Z,6.28
2018-08-22T00:26:33.198Z,6.47
2018-08-22T00:29:02.108Z,7.10
2018-08-22T00:31:31.012Z,7.15
2018-08-22T00:33:59.879Z,6.58
2018-08-22T00:36:28.781Z,6.50
2018-08-22T00:38:57.644Z,5.70
2018-08-22T00:41:26.639Z,6.67
2018-08-22T00:43:57.549Z,6.45
2018-08-22T00:46:26.471Z,6.55
2018-08-22T00:48:55.342Z,6.70
2018-08-22T00:51:24.239Z,6.10
2018-08-22T00:53:53.106Z,6.53
2018-08-22T00:56:22.019Z,6.97
2018-08-22T00:58:50.879Z,7.05
2018-08-22T01:01:19.891Z,6.40
2018-08-22T01:03:48.773Z,7.47
2018-08-22T01:06:17.666Z,6.78
2018-08-22T01:08:46.593Z,7.25
2018-08-22T01:11:15.488Z,7.40
2018-08-22T01:13:44.397Z,5.90
2018-08-22T01:16:13.268Z,5.65
2018-08-22T01:18:42.157Z,6.50
2018-08-22T01:21:11.032Z,5.67
2018-08-22T01:23:39.966Z,6.17
2018-08-22T01:26:08.853Z,6.05
2018-08-22T01:28:37.783Z,5.95
2018-08-22T01:31:06.716Z,6.28
2018-08-22T01:33:35.744Z,6.42
2018-08-22T01:36:04.675Z,6.53
2018-08-22T01:38:33.534Z,5.75
2018-08-22T01:41:02.446Z,6.05
2018-08-22T01:43:31.327Z,6.72
2018-08-22T01:46:00.252Z,6.35
2018-08-22T01:48:29.142Z,6.10
2018-08-22T01:50:58.051Z,7.35
2018-08-22T01:53:26.903Z,6.35
2018-08-22T01:55:55.859Z,5.97
2018-08-22T01:58:24.726Z,6.55
2018-08-22T02:00:53.635Z,6.58
2018-08-22T02:03:22.567Z,6.53
2018-08-22T02:05:51.476Z,6.35
2018-08-22T02:08:20.368Z,7.55
2018-08-22T02:10:49.251Z,5.58
2018-08-22T02:13:18.161Z,6.33
2018-08-22T02:15:47.052Z,6.30
2018-08-22T02:18:15.987Z,6.50
2018-08-22T02:20:44.966Z,6.80
2018-08-22T02:23:13.889Z,6.80
2018-08-22T02:25:42.798Z,7.22
2018-08-22T02:28:11.937Z,6.90
2018-08-22T02:30:40.849Z,7.50
2018-08-22T02:33:09.717Z,6.90
2018-08-22T02:35:38.572Z,7.20
2018-08-22T02:38:07.485Z,7.03
2018-08-22T02:40:36.355Z,8.28
2018-08-22T02:43:05.342Z,7.75
2018-08-22T02:45:34.255Z,9.08
2018-08-22T02:48:03.173Z,8.68
2018-08-22T02:50:32.115Z,8.35
2018-08-22T02:53:01.023Z,9.33
2018-08-22T02:55:29.879Z,7.60
2018-08-22T02:57:58.790Z,7.15
2018-08-22T03:00:27.669Z,7.00
2018-08-22T03:02:56.596Z,7.62
2018-08-22T03:05:25.571Z,7.28
2018-08-22T03:07:54.459Z,7.37
2018-08-22T03:10:23.343Z,7.42
2018-08-22T03:12:52.275Z,8.05
2018-08-22T03:15:21.236Z,7.05
2018-08-22T03:17:50.221Z,8.08
2018-08-22T03:20:19.204Z,6.15
2018-08-22T03:22:48.115Z,7.45
2018-08-22T03:25:16.983Z,7.67
2018-08-22T03:27:45.847Z,7.75
2018-08-22T03:30:14.755Z,6.85
2018-08-22T03:32:43.748Z,7.50
2018-08-22T03:35:12.660Z,7.60
2018-08-22T03:37:41.507Z,7.12
2018-08-22T03:40:10.383Z,8.78
2018-08-22T03:42:39.253Z,9.20
2018-08-22T03:45:08.317Z,9.63
2018-08-22T03:47:37.376Z,8.93
2018-08-22T03:50:06.540Z,9.63
2018-08-22T03:52:35.422Z,8.53
2018-08-22T03:55:04.373Z,9.18
2018-08-22T03:57:33.348Z,8.28
2018-08-22T04:00:02.196Z,9.18
2018-08-22T04:02:31.093Z,8.15
2018-08-22T04:04:59.968Z,9.53
2018-08-22T04:07:28.881Z,8.85
2018-08-22T04:09:57.760Z,8.95
2018-08-22T04:12:26.706Z,8.80
2018-08-22T04:14:55.637Z,9.05
2018-08-22T04:17:36.347Z,9.33
2018-08-22T04:20:05.525Z,9.13
2018-08-22T04:22:34.749Z,8.50
2018-08-22T04:25:03.727Z,9.20
2018-08-22T04:27:32.682Z,9.45
2018-08-22T04:30:01.622Z,9.40
2018-08-22T04:32:30.555Z,8.63
2018-08-22T04:34:59.448Z,7.60
2018-08-22T04:37:28.389Z,8.28
2018-08-22T04:39:57.292Z,7.87
2018-08-22T04:42:26.193Z,8.53
2018-08-22T04:44:55.160Z,8.18
2018-08-22T04:47:24.111Z,8.28
2018-08-22T04:49:53.025Z,8.50
2018-08-22T04:52:21.890Z,8.28
2018-08-22T04:54:50.794Z,8.68
2018-08-22T04:57:19.681Z,6.92
2018-08-22T04:59:48.573Z,7.40
2018-08-22T05:02:17.439Z,6.45
2018-08-22T05:04:46.350Z,7.65
2018-08-22T05:07:15.220Z,7.40
2018-08-22T05:09:44.063Z,8.03
2018-08-22T05:12:12.975Z,7.05
2018-08-22T05:14:41.845Z,7.42
2018-08-22T05:17:10.801Z,6.50
2018-08-22T05:19:39.735Z,7.05
2018-08-22T05:22:08.605Z,7.28
2018-08-22T05:24:37.552Z,5.10
2018-08-22T05:27:06.466Z,6.92
2018-08-22T05:29:35.407Z,6.45
2018-08-22T05:32:04.360Z,7.65
2018-08-22T05:34:33.211Z,6.90
2018-08-22T05:37:02.107Z,5.62
2018-08-22T05:39:31.078Z,6.28
2018-08-22T05:41:59.934Z,5.47
2018-08-22T05:44:28.807Z,5.10
2018-08-22T05:46:57.661Z,5.62
2018-08-22T05:49:26.576Z,4.80
2018-08-22T05:51:55.520Z,4.97
2018-08-22T05:54:24.414Z,5.47
2018-08-22T05:56:53.301Z,5.55
2018-08-22T05:59:22.287Z,5.53
2018-08-22T06:01:51.255Z,5.50
2018-08-22T06:04:20.270Z,5.85
2018-08-22T06:06:49.262Z,4.83
2018-08-22T06:09:18.203Z,5.35
2018-08-22T06:11:47.074Z,5.70
2018-08-22T06:14:16.050Z,5.22
2018-08-22T06:16:44.935Z,6.22
2018-08-22T06:19:13.804Z,6.20
2018-08-22T06:21:42.778Z,4.53
2018-08-22T06:24:11.650Z,5.83
2018-08-22T06:26:40.921Z,4.83
2018-08-22T06:29:09.819Z,4.45
2018-08-22T06:31:38.854Z,6.50
2018-08-22T06:34:07.829Z,4.83
2018-08-22T06:36:36.851Z,4.77
2018-08-22T06:39:08.429Z,5.80
2018-08-22T06:41:37.397Z,3.77
2018-08-22T06:44:06.545Z,5.00
2018-08-22T06:46:35.554Z,4.57
2018-08-22T06:49:04.595Z,4.23
2018-08-22T06:51:33.602Z,3.63
2018-08-22T06:54:02.702Z,4.03
2018-08-22T06:56:31.749Z,3.53
2018-08-22T06:59:00.736Z,4.00
2018-08-22T07:01:29.669Z,3.57
2018-08-22T07:03:58.642Z,4.30
2018-08-22T07:06:27.626Z,6.60
2018-08-22T07:08:56.595Z,4.37
2018-08-22T07:11:25.516Z,3.73
2018-08-22T07:13:54.540Z,3.40
2018-08-22T07:16:23.564Z,4.30
2018-08-22T07:18:52.862Z,4.07
2018-08-22T07:21:21.832Z,4.33
2018-08-22T07:23:50.814Z,4.50
2018-08-22T07:26:19.801Z,4.07
2018-08-22T07:28:48.731Z,8.67
2018-08-22T07:31:17.713Z,20.53
2018-08-22T07:33:46.657Z,3.40
2018-08-22T07:36:15.619Z,3.60
2018-08-22T07:38:44.683Z,3.57
2018-08-22T07:41:13.915Z,3.90
2018-08-22T07:43:43.145Z,3.70
2018-08-22T07:46:12.297Z,3.87
2018-08-22T07:48:41.297Z,3.27
2018-08-22T07:51:10.393Z,3.50
2018-08-22T07:53:39.348Z,3.10
2018-08-22T07:56:08.572Z,3.10
2018-08-22T07:58:37.969Z,3.30
2018-08-22T08:01:07.235Z,3.23
2018-08-22T08:03:36.431Z,2.80
2018-08-22T08:06:05.738Z,2.67
2018-08-22T08:08:34.716Z,3.20
2018-08-22T08:11:03.802Z,2.50
2018-08-22T08:13:32.751Z,2.63
2018-08-22T08:16:01.741Z,2.50
2018-08-22T08:18:30.811Z,2.50
2018-08-22T08:20:59.796Z,2.33
2018-08-22T08:23:28.734Z,2.00
2018-08-22T08:25:57.801Z,2.00
2018-08-22T08:28:26.823Z,2.27
2018-08-22T08:30:55.817Z,1.87
2018-08-22T08:33:24.829Z,2.23
2018-08-22T08:35:53.815Z,2.17
2018-08-22T08:38:22.813Z,2.13
2018-08-22T08:40:51.777Z,2.47
2018-08-22T08:43:20.742Z,1.93
2018-08-22T08:45:49.770Z,2.00
2018-08-22T08:48:18.737Z,2.43
2018-08-22T08:51:03.325Z,1.90
2018-08-22T08:53:32.271Z,2.20
2018-08-22T08:56:01.442Z,2.17
2018-08-22T08:58:30.406Z,2.27
2018-08-22T09:00:59.442Z,2.47
2018-08-22T09:03:28.396Z,1.70
2018-08-22T09:05:57.362Z,2.83
2018-08-22T09:08:26.320Z,2.97
2018-08-22T09:10:55.337Z,2.67
2018-08-22T09:13:24.328Z,3.10
2018-08-22T09:15:53.321Z,2.93
2018-08-22T09:18:22.281Z,2.00
2018-08-22T09:20:51.213Z,3.00
2018-08-22T09:23:20.180Z,2.80
2018-08-22T09:25:49.116Z,2.57
2018-08-22T09:28:19.081Z,3.33
2018-08-22T09:30:48.021Z,2.50
2018-08-22T09:33:16.993Z,2.07
2018-08-22T09:35:46.050Z,3.30
2018-08-22T09:38:15.059Z,3.60
2018-08-22T09:40:44.064Z,3.37
2018-08-22T09:43:13.084Z,2.93
2018-08-22T09:45:43.802Z,2.90
2018-08-22T09:48:12.807Z,2.60
2018-08-22T09:50:41.906Z,2.60
2018-08-22T09:53:10.899Z,3.37
2018-08-22T09:55:39.902Z,2.70
2018-08-22T09:58:10.248Z,3.02
2018-08-22T10:00:45.632Z,2.80
2018-08-22T10:03:15.722Z,3.47
2018-08-22T10:05:44.690Z,3.15
2018-08-22T10:08:13.670Z,3.40
2018-08-22T10:10:42.630Z,3.10
2018-08-22T10:13:11.886Z,3.17
2018-08-22T10:15:40.915Z,3.10
2018-08-22T10:18:09.931Z,3.75
2018-08-22T10:20:39.904Z,3.20
2018-08-22T10:23:08.878Z,3.08
2018-08-22T10:25:37.877Z,3.47
2018-08-22T10:28:06.995Z,3.10
2018-08-22T10:30:35.952Z,2.98
2018-08-22T10:33:05.053Z,2.90
2018-08-22T10:35:34.048Z,2.83
2018-08-22T10:38:03.042Z,3.58
2018-08-22T10:40:32.082Z,4.35
2018-08-22T10:43:01.067Z,3.40
2018-08-22T10:45:30.039Z,3.00
2018-08-22T10:47:59.046Z,2.87
2018-08-22T10:50:28.073Z,3.30
2018-08-22T10:52:57.076Z,3.08
2018-08-22T10:55:26.065Z,2.85
2018-08-22T10:57:55.100Z,3.20
2018-08-22T11:00:24.091Z,2.98
2018-08-22T11:02:53.053Z,3.52
2018-08-22T11:05:21.985Z,2.80
2018-08-22T11:07:51.202Z,3.10
2018-08-22T11:10:20.191Z,3.87
2018-08-22T11:12:49.234Z,3.20
2018-08-22T11:15:18.204Z,3.33
2018-08-22T11:17:47.232Z,3.92
2018-08-22T11:20:16.284Z,2.72
2018-08-22T11:22:56.285Z,2.55
2018-08-22T11:25:36.440Z,2.77
2018-08-22T11:28:16.550Z,3.45
2018-08-22T11:30:56.862Z,3.45
2018-08-22T11:33:37.036Z,2.83
2018-08-22T11:36:04.753Z,3.33
2018-08-22T11:38:33.746Z,3.30
2018-08-22T11:41:02.774Z,3.30
2018-08-22T11:43:31.715Z,7.50
2018-08-22T11:46:00.713Z,3.65
2018-08-22T11:48:29.691Z,3.65
2018-08-22T11:50:58.863Z,4.33
2018-08-22T11:53:27.825Z,3.30
2018-08-22T11:55:56.858Z,2.33
2018-08-22T11:58:25.834Z,3.40
2018-08-22T12:00:54.796Z,4.00
2018-08-22T12:03:23.761Z,3.83
2018-08-22T12:05:52.786Z,3.67
2018-08-22T12:08:21.755Z,3.35
2018-08-22T12:10:50.701Z,4.00
2018-08-22T12:13:19.769Z,3.05
2018-08-22T12:15:48.771Z,3.58
2018-08-22T12:18:17.770Z,3.12
2018-08-22T12:20:46.754Z,3.62
2018-08-22T12:23:15.957Z,4.25
2018-08-22T12:25:45.014Z,8.65
2018-08-22T12:28:14.027Z,3.83
2018-08-22T12:30:43.026Z,4.58
2018-08-22T12:33:12.018Z,2.98
2018-08-22T12:35:40.959Z,4.75
2018-08-22T12:38:09.954Z,3.50
2018-08-22T12:40:38.914Z,3.47
2018-08-22T12:43:07.869Z,3.70
2018-08-22T12:45:36.878Z,3.05
2018-08-22T12:48:06.005Z,3.67
2018-08-22T12:50:35.004Z,3.15
2018-08-22T12:53:04.050Z,4.05
2018-08-22T12:55:33.010Z,3.75
2018-08-22T12:58:01.986Z,4.17
2018-08-22T13:00:30.945Z,3.45
2018-08-22T13:03:00.293Z,4.05
2018-08-22T13:05:29.282Z,4.00
2018-08-22T13:07:58.285Z,4.40
2018-08-22T13:10:27.245Z,3.30
2018-08-22T13:12:56.193Z,4.60
2018-08-22T13:15:25.242Z,3.52
2018-08-22T13:17:54.170Z,3.35
2018-08-22T13:20:23.161Z,3.85
2018-08-22T13:22:52.166Z,3.45
2018-08-22T13:25:21.163Z,4.70
2018-08-22T13:27:50.182Z,3.30
2018-08-22T13:30:19.238Z,4.37
2018-08-22T13:32:48.166Z,3.98
2018-08-22T13:35:17.210Z,3.58
2018-08-22T13:37:46.234Z,4.10
2018-08-22T13:40:15.355Z,3.95
2018-08-22T13:42:44.334Z,3.90
2018-08-22T13:45:13.310Z,4.20
2018-08-22T13:47:42.306Z,3.75
2018-08-22T13:50:12.019Z,4.53
2018-08-22T13:52:41.040Z,4.15
2018-08-22T13:55:09.976Z,3.80
2018-08-22T13:57:38.955Z,4.53
2018-08-22T14:00:08.623Z,4.10
2018-08-22T14:02:37.687Z,3.92
2018-08-22T14:05:06.607Z,4.42
2018-08-22T14:07:35.585Z,3.72
2018-08-22T14:10:04.565Z,5.05
2018-08-22T14:12:33.588Z,4.35
2018-08-22T14:15:02.500Z,3.92
2018-08-22T14:17:31.407Z,4.42
2018-08-22T14:20:00.352Z,5.97
2018-08-22T14:22:29.301Z,3.87
2018-08-22T14:24:58.209Z,10.08
2018-08-22T14:27:27.107Z,3.40
2018-08-22T14:29:56.025Z,4.37
2018-08-22T14:32:24.942Z,3.87
2018-08-22T14:34:53.909Z,5.00
2018-08-22T14:37:22.771Z,4.70
2018-08-22T14:39:51.683Z,4.35
2018-08-22T14:42:20.556Z,4.55
2018-08-22T14:44:49.486Z,6.22
2018-08-22T14:47:18.512Z,4.58
2018-08-22T14:49:47.429Z,4.40
2018-08-22T14:52:16.316Z,3.80
2018-08-22T14:54:45.192Z,4.33
2018-08-22T14:57:14.086Z,3.92
2018-08-22T14:59:42.988Z,3.87
2018-08-22T15:02:11.928Z,4.60
2018-08-22T15:04:40.827Z,3.42
2018-08-22T15:07:09.734Z,4.28
2018-08-22T15:09:38.617Z,4.65
2018-08-22T15:12:07.603Z,4.30
2018-08-22T15:14:36.495Z,3.70
2018-08-22T15:17:20.339Z,3.75
2018-08-22T15:19:49.257Z,5.40
2018-08-22T15:22:18.265Z,3.47
2018-08-22T15:24:47.162Z,5.05
2018-08-22T15:27:16.047Z,3.90
2018-08-22T15:29:44.947Z,4.37
2018-08-22T15:32:13.836Z,4.28
2018-08-22T15:34:49.790Z,3.75
2018-08-22T15:37:18.894Z,3.70
2018-08-22T15:39:48.131Z,3.62
2018-08-22T15:42:17.038Z,4.05
2018-08-22T15:44:45.963Z,3.77
2018-08-22T15:47:15.260Z,3.75
2018-08-22T15:49:45.132Z,4.40
2018-08-22T15:52:14.247Z,4.25
2018-08-22T15:54:43.304Z,4.50
2018-08-22T15:57:12.190Z,4.20
2018-08-22T15:59:41.059Z,4.08
2018-08-22T16:02:09.959Z,3.80
2018-08-22T16:05:00.356Z,4.60
2018-08-22T16:07:29.267Z,4.35
2018-08-22T16:09:58.127Z,5.28
2018-08-22T16:12:27.108Z,4.08
2018-08-22T16:14:55.991Z,4.37
2018-08-22T16:17:24.891Z,4.65
2018-08-22T16:19:53.866Z,4.65
2018-08-22T16:22:22.782Z,4.42
2018-08-22T16:24:51.814Z,4.17
2018-08-22T16:27:20.757Z,5.28
2018-08-22T16:29:49.698Z,4.15
2018-08-22T16:32:18.566Z,4.87
2018-08-22T16:34:47.523Z,4.42
2018-08-22T16:37:18.323Z,4.30
2018-08-22T16:39:47.419Z,4.40
2018-08-22T16:42:19.168Z,4.35
2018-08-22T16:44:48.092Z,5.17
2018-08-22T16:47:17.085Z,4.28
2018-08-22T16:49:46.053Z,4.55
2018-08-22T16:52:14.928Z,3.87
2018-08-22T16:54:43.844Z,4.45
2018-08-22T16:57:12.823Z,4.67
2018-08-22T16:59:41.752Z,4.20
2018-08-22T17:02:10.813Z,4.45
2018-08-22T17:04:39.714Z,3.80
2018-08-22T17:07:13.808Z,4.20
2018-08-22T17:09:42.893Z,4.60
2018-08-22T17:12:11.830Z,4.50
2018-08-22T17:14:40.700Z,4.45
2018-08-22T17:17:09.614Z,4.97
2018-08-22T17:19:38.470Z,4.92
2018-08-22T17:22:07.395Z,4.45
2018-08-22T17:24:36.315Z,5.10
2018-08-22T17:27:05.278Z,4.95
2018-08-22T17:29:34.211Z,3.60
2018-08-22T17:32:06.129Z,3.72
2018-08-22T17:34:35.257Z,5.00
2018-08-22T17:37:09.524Z,4.25
2018-08-22T17:39:38.400Z,4.35
2018-08-22T17:42:07.305Z,4.37
2018-08-22T17:44:36.209Z,3.85
2018-08-22T17:47:05.159Z,4.87
2018-08-22T17:49:34.095Z,4.40
2018-08-22T17:52:07.455Z,4.58
2018-08-22T17:54:37.039Z,4.40
2018-08-22T17:57:27.231Z,4.25
2018-08-22T17:59:57.866Z,4.67
2018-08-22T18:02:26.761Z,4.53
2018-08-22T18:05:00.982Z,4.17
2018-08-22T18:07:30.001Z,4.37
2018-08-22T18:09:58.892Z,5.17
2018-08-22T18:12:28.527Z,4.50
2018-08-22T18:14:59.896Z,4.37
2018-08-22T18:17:28.814Z,4.40
2018-08-22T18:19:57.684Z,4.95
2018-08-22T18:22:31.417Z,4.47
2018-08-22T18:25:00.287Z,4.28
2018-08-22T18:27:29.250Z,4.08
2018-08-22T18:29:58.152Z,3.75
2018-08-22T18:32:27.081Z,4.85
2018-08-22T18:35:05.809Z,3.80
2018-08-22T18:37:34.782Z,4.42
2018-08-22T18:40:11.472Z,3.35
2018-08-22T18:42:40.443Z,3.42
2018-08-22T18:45:09.363Z,4.58
2018-08-22T18:47:38.267Z,4.65
2018-08-22T18:50:07.227Z,3.58
2018-08-22T18:52:36.149Z,4.90
2018-08-22T18:55:05.198Z,4.37
2018-08-22T18:57:34.108Z,4.83
2018-08-22T19:00:06.536Z,4.05
2018-08-22T19:02:35.406Z,4.53
2018-08-22T19:05:22.845Z,3.87
2018-08-22T19:08:02.011Z,3.80
2018-08-22T19:10:32.041Z,3.30
2018-08-22T19:13:06.118Z,4.30
2018-08-22T19:15:35.532Z,4.00
2018-08-22T19:18:19.295Z,4.03
2018-08-22T19:20:48.740Z,3.98
2018-08-22T19:23:17.643Z,4.15
2018-08-22T19:25:48.636Z,4.08
2018-08-22T19:28:17.608Z,3.87
2018-08-22T19:30:46.510Z,3.87
2018-08-22T19:33:17.567Z,4.12
2018-08-22T19:35:46.895Z,4.70
2018-08-22T19:38:16.961Z,4.17
2018-08-22T19:40:45.892Z,3.83
2018-08-22T19:43:14.900Z,4.30
2018-08-22T19:45:43.851Z,4.15
2018-08-22T19:48:12.872Z,4.08
2018-08-22T19:50:41.788Z,4.20
2018-08-22T19:53:10.680Z,4.65
2018-08-22T19:55:39.653Z,4.92
2018-08-22T19:58:08.970Z,4.20
2018-08-22T20:00:37.896Z,4.20
2018-08-22T20:03:06.791Z,5.03
2018-08-22T20:05:56.561Z,5.35
2018-08-22T20:08:30.639Z,4.67
2018-08-22T20:10:59.874Z,5.00
2018-08-22T20:13:39.695Z,5.10
2018-08-22T20:16:08.702Z,4.60
2018-08-22T20:18:37.564Z,6.35
2018-08-22T20:21:06.710Z,4.65
2018-08-22T20:23:35.682Z,5.25
2018-08-22T20:26:04.642Z,5.03
2018-08-22T20:28:34.211Z,4.55
2018-08-22T20:31:07.327Z,5.92
2018-08-22T20:33:36.215Z,5.42
2018-08-22T20:36:05.162Z,4.75
2018-08-22T20:38:34.183Z,5.15
2018-08-22T20:41:08.372Z,3.95
2018-08-22T20:43:37.546Z,4.72
2018-08-22T20:46:06.443Z,5.53
2018-08-22T20:48:36.331Z,4.83
2018-08-22T20:51:05.323Z,5.20
2018-08-22T20:53:34.234Z,5.20
2018-08-22T20:56:03.131Z,5.37
2018-08-22T20:58:32.123Z,5.00
2018-08-22T21:01:01.458Z,5.58
2018-08-22T21:03:30.374Z,6.00
2018-08-22T21:05:59.325Z,5.00
2018-08-22T21:08:28.218Z,5.42
2018-08-22T21:10:57.149Z,4.00
2018-08-22T21:13:28.449Z,6.65
2018-08-22T21:15:57.745Z,5.70
2018-08-22T21:18:26.664Z,5.47
2018-08-22T21:20:55.659Z,5.33
2018-08-22T21:23:24.551Z,5.87
2018-08-22T21:25:53.452Z,5.00
2018-08-22T21:28:34.334Z,4.62
2018-08-22T21:31:03.280Z,5.00
2018-08-22T21:33:32.198Z,5.20
2018-08-22T21:36:02.091Z,5.10
2018-08-22T21:38:30.970Z,5.65
2018-08-22T21:40:59.835Z,5.55
2018-08-22T21:43:28.731Z,5.70
2018-08-22T21:45:57.600Z,4.85
2018-08-22T21:48:27.099Z,5.87
2018-08-22T21:50:55.988Z,5.42
2018-08-22T21:53:24.912Z,5.60
2018-08-22T21:55:54.093Z,4.45
2018-08-22T21:58:23.029Z,5.62
2018-08-22T22:00:51.887Z,5.65
2018-08-22T22:03:26.046Z,5.25
2018-08-22T22:06:02.157Z,6.03
2018-08-22T22:08:31.277Z,7.05
2018-08-22T22:11:03.939Z,5.30
2018-08-22T22:13:32.906Z,5.83
2018-08-22T22:16:03.867Z,5.95
2018-08-22T22:18:33.842Z,6.47
2018-08-22T22:21:15.106Z,6.70
2018-08-22T22:23:45.816Z,6.20
2018-08-22T22:28:50.119Z,6.72
2018-08-22T22:31:18.952Z,7.35
2018-08-22T22:34:07.893Z,6.75
2018-08-22T22:36:36.770Z,7.58
2018-08-22T22:39:42.734Z,6.22
2018-08-22T22:42:17.182Z,7.33
2018-08-22T22:44:49.987Z,7.12
2018-08-22T22:47:24.060Z,7.50
2018-08-22T22:49:53.145Z,7.35
2018-08-22T22:52:44.174Z,8.00
2018-08-22T22:55:13.395Z,6.72
2018-08-22T22:57:43.553Z,7.67
2018-08-22T23:00:14.032Z,6.92
2018-08-22T23:02:43.920Z,8.65
2018-08-22T23:05:12.890Z,7.17
2018-08-22T23:10:16.631Z,6.97
2018-08-22T23:12:46.854Z,7.85
2018-08-22T23:15:24.518Z,7.55
2018-08-22T23:17:55.120Z,7.62
2018-08-22T23:20:42.605Z,7.20
2018-08-22T23:23:42.878Z,8.05
2018-08-22T23:26:17.059Z,6.53
2018-08-22T23:28:46.015Z,7.53
2018-08-22T23:31:18.449Z,7.30
2018-08-22T23:33:47.362Z,7.58
2018-08-22T23:36:16.226Z,7.53
2018-08-22T23:38:45.138Z,7.47
2018-08-22T23:41:14.018Z,7.42
2018-08-22T23:43:48.308Z,7.45
2018-08-22T23:46:17.179Z,8.25
2018-08-22T23:48:50.660Z,11.48
2018-08-22T23:51:19.565Z,7.78
2018-08-22T23:53:49.006Z,7.90
2018-08-22T23:56:23.911Z,8.23
2018-08-22T23:58:53.393Z,7.42
